sensor_id;sensor_type;location;lat;lon;timestamp;P1;durP1;ratioP1;P2;durP2;ratioP2
72273;SDS011;60208;48.692;8.948;2023-06-10T00:00:38;7.97;;;7.18;;
72273;SDS011;60208;48.692;8.948;2023-06-10T00:03:06;7.70;;;7.00;;
72273;SDS011;60208;48.692;8.948;2023-06-10T00:05:31;8.35;;;7.38;;
72273;SDS011;60208;48.692;8.948;2023-06-10T00:07:59;8.52;;;7.40;;
72273;SDS011;60208;48.692;8.948;2023-06-10T00:10:26;8.25;;;6.97;;
72273;SDS011;60208;48.692;8.948;2023-06-10T00:12:52;8.07;;;7.28;;
72273;SDS011;60208;48.692;8.948;2023-06-10T00:15:17;7.75;;;6.95;;
72273;SDS011;60208;48.692;8.948;2023-06-10T00:17:43;9.52;;;7.28;;
72273;SDS011;60208;48.692;8.948;2023-06-10T00:20:09;8.80;;;6.90;;
72273;SDS011;60208;48.692;8.948;2023-06-10T00:22:38;9.38;;;7.50;;
72273;SDS011;60208;48.692;8.948;2023-06-10T00:25:05;8.43;;;7.28;;
72273;SDS011;60208;48.692;8.948;2023-06-10T00:27:33;7.85;;;7.15;;
72273;SDS011;60208;48.692;8.948;2023-06-10T00:30:03;10.30;;;7.50;;
72273;SDS011;60208;48.692;8.948;2023-06-10T00:32:31;8.65;;;7.85;;
72273;SDS011;60208;48.692;8.948;2023-06-10T00:34:56;10.68;;;7.60;;
72273;SDS011;60208;48.692;8.948;2023-06-10T00:37:22;7.97;;;7.20;;
72273;SDS011;60208;48.692;8.948;2023-06-10T00:39:47;9.98;;;7.18;;
72273;SDS011;60208;48.692;8.948;2023-06-10T00:42:13;8.25;;;7.10;;
72273;SDS011;60208;48.692;8.948;2023-06-10T00:44:38;7.93;;;7.13;;
72273;SDS011;60208;48.692;8.948;2023-06-10T00:47:04;8.50;;;7.68;;
72273;SDS011;60208;48.692;8.948;2023-06-10T00:49:31;7.97;;;7.18;;
72273;SDS011;60208;48.692;8.948;2023-06-10T00:51:57;8.30;;;7.28;;
72273;SDS011;60208;48.692;8.948;2023-06-10T00:54:22;8.27;;;7.30;;
72273;SDS011;60208;48.692;8.948;2023-06-10T00:56:48;8.32;;;7.13;;
72273;SDS011;60208;48.692;8.948;2023-06-10T00:59:14;9.05;;;7.68;;
72273;SDS011;60208;48.692;8.948;2023-06-10T01:01:40;9.88;;;7.45;;
72273;SDS011;60208;48.692;8.948;2023-06-10T01:04:08;8.57;;;7.25;;
72273;SDS011;60208;48.692;8.948;2023-06-10T01:06:41;9.50;;;7.15;;
72273;SDS011;60208;48.692;8.948;2023-06-10T01:11:46;9.05;;;7.20;;
72273;SDS011;60208;48.692;8.948;2023-06-10T01:14:13;8.07;;;7.28;;
72273;SDS011;60208;48.692;8.948;2023-06-10T01:16:41;9.13;;;7.72;;
72273;SDS011;60208;48.692;8.948;2023-06-10T01:19:07;8.23;;;7.40;;
72273;SDS011;60208;48.692;8.948;2023-06-10T01:21:33;8.35;;;7.43;;
72273;SDS011;60208;48.692;8.948;2023-06-10T01:23:58;9.15;;;7.70;;
72273;SDS011;60208;48.692;8.948;2023-06-10T01:26:30;8.43;;;7.57;;
72273;SDS011;60208;48.692;8.948;2023-06-10T01:29:17;8.30;;;7.50;;
72273;SDS011;60208;48.692;8.948;2023-06-10T01:31:52;8.35;;;7.32;;
72273;SDS011;60208;48.692;8.948;2023-06-10T01:34:24;9.05;;;7.47;;
72273;SDS011;60208;48.692;8.948;2023-06-10T01:36:53;8.30;;;7.30;;
72273;SDS011;60208;48.692;8.948;2023-06-10T01:39:23;8.93;;;7.80;;
72273;SDS011;60208;48.692;8.948;2023-06-10T01:41:52;10.20;;;7.50;;
72273;SDS011;60208;48.692;8.948;2023-06-10T01:44:18;8.20;;;7.40;;
72273;SDS011;60208;48.692;8.948;2023-06-10T01:46:54;10.07;;;8.05;;
72273;SDS011;60208;48.692;8.948;2023-06-10T01:49:22;8.27;;;7.38;;
72273;SDS011;60208;48.692;8.948;2023-06-10T01:51:49;10.25;;;7.85;;
72273;SDS011;60208;48.692;8.948;2023-06-10T01:54:14;9.25;;;8.18;;
72273;SDS011;60208;48.692;8.948;2023-06-10T01:56:40;12.88;;;9.77;;
72273;SDS011;60208;48.692;8.948;2023-06-10T01:59:05;10.55;;;9.55;;
72273;SDS011;60208;48.692;8.948;2023-06-10T02:01:33;11.20;;;9.50;;
72273;SDS011;60208;48.692;8.948;2023-06-10T02:06:34;9.07;;;8.10;;
72273;SDS011;60208;48.692;8.948;2023-06-10T02:09:00;12.35;;;8.25;;
72273;SDS011;60208;48.692;8.948;2023-06-10T02:11:28;8.73;;;7.93;;
72273;SDS011;60208;48.692;8.948;2023-06-10T02:14:12;9.48;;;8.20;;
72273;SDS011;60208;48.692;8.948;2023-06-10T02:16:37;9.80;;;8.90;;
72273;SDS011;60208;48.692;8.948;2023-06-10T02:19:02;9.15;;;7.95;;
72273;SDS011;60208;48.692;8.948;2023-06-10T02:21:31;8.82;;;7.88;;
72273;SDS011;60208;48.692;8.948;2023-06-10T02:23:57;8.63;;;7.82;;
72273;SDS011;60208;48.692;8.948;2023-06-10T02:26:22;8.98;;;8.07;;
72273;SDS011;60208;48.692;8.948;2023-06-10T02:28:48;8.70;;;7.90;;
72273;SDS011;60208;48.692;8.948;2023-06-10T02:31:13;10.05;;;8.38;;
72273;SDS011;60208;48.692;8.948;2023-06-10T02:33:43;10.45;;;7.97;;
72273;SDS011;60208;48.692;8.948;2023-06-10T02:36:18;8.80;;;8.00;;
72273;SDS011;60208;48.692;8.948;2023-06-10T02:38:46;10.30;;;8.20;;
72273;SDS011;60208;48.692;8.948;2023-06-10T02:41:19;8.70;;;7.82;;
72273;SDS011;60208;48.692;8.948;2023-06-10T02:43:53;9.95;;;7.63;;
72273;SDS011;60208;48.692;8.948;2023-06-10T02:46:19;9.60;;;8.70;;
72273;SDS011;60208;48.692;8.948;2023-06-10T02:48:47;10.15;;;8.25;;
72273;SDS011;60208;48.692;8.948;2023-06-10T02:51:14;9.30;;;8.13;;
72273;SDS011;60208;48.692;8.948;2023-06-10T02:53:50;9.48;;;7.78;;
72273;SDS011;60208;48.692;8.948;2023-06-10T02:56:39;9.45;;;8.27;;
72273;SDS011;60208;48.692;8.948;2023-06-10T02:59:06;8.77;;;7.82;;
72273;SDS011;60208;48.692;8.948;2023-06-10T03:01:33;9.18;;;8.27;;
72273;SDS011;60208;48.692;8.948;2023-06-10T03:04:01;9.90;;;8.75;;
72273;SDS011;60208;48.692;8.948;2023-06-10T03:06:29;8.88;;;7.97;;
72273;SDS011;60208;48.692;8.948;2023-06-10T03:09:08;9.35;;;8.40;;
72273;SDS011;60208;48.692;8.948;2023-06-10T03:11:33;10.57;;;8.75;;
72273;SDS011;60208;48.692;8.948;2023-06-10T03:13:58;10.30;;;8.13;;
72273;SDS011;60208;48.692;8.948;2023-06-10T03:16:26;9.57;;;8.55;;
72273;SDS011;60208;48.692;8.948;2023-06-10T03:18:52;9.27;;;8.32;;
72273;SDS011;60208;48.692;8.948;2023-06-10T03:21:17;9.00;;;8.05;;
72273;SDS011;60208;48.692;8.948;2023-06-10T03:23:43;9.85;;;8.52;;
72273;SDS011;60208;48.692;8.948;2023-06-10T03:26:08;9.18;;;8.30;;
72273;SDS011;60208;48.692;8.948;2023-06-10T03:28:35;9.77;;;8.57;;
72273;SDS011;60208;48.692;8.948;2023-06-10T03:31:00;9.63;;;8.50;;
72273;SDS011;60208;48.692;8.948;2023-06-10T03:33:28;9.45;;;8.55;;
72273;SDS011;60208;48.692;8.948;2023-06-10T03:35:53;9.88;;;8.85;;
72273;SDS011;60208;48.692;8.948;2023-06-10T03:38:19;9.10;;;8.25;;
72273;SDS011;60208;48.692;8.948;2023-06-10T03:40:44;9.63;;;8.68;;
72273;SDS011;60208;48.692;8.948;2023-06-10T03:43:10;9.20;;;8.30;;
72273;SDS011;60208;48.692;8.948;2023-06-10T03:45:36;9.98;;;9.07;;
72273;SDS011;60208;48.692;8.948;2023-06-10T03:48:01;9.27;;;8.27;;
72273;SDS011;60208;48.692;8.948;2023-06-10T03:50:30;9.10;;;8.20;;
72273;SDS011;60208;48.692;8.948;2023-06-10T03:52:56;9.48;;;8.48;;
72273;SDS011;60208;48.692;8.948;2023-06-10T03:55:22;9.23;;;8.32;;
72273;SDS011;60208;48.692;8.948;2023-06-10T03:57:49;10.13;;;9.10;;
72273;SDS011;60208;48.692;8.948;2023-06-10T04:00:15;9.57;;;8.68;;
72273;SDS011;60208;48.692;8.948;2023-06-10T04:02:41;10.25;;;9.25;;
72273;SDS011;60208;48.692;8.948;2023-06-10T04:05:11;9.68;;;8.73;;
72273;SDS011;60208;48.692;8.948;2023-06-10T04:07:37;9.90;;;9.00;;
72273;SDS011;60208;48.692;8.948;2023-06-10T04:10:05;9.95;;;8.95;;
72273;SDS011;60208;48.692;8.948;2023-06-10T04:12:32;10.18;;;8.50;;
72273;SDS011;60208;48.692;8.948;2023-06-10T04:14:59;9.40;;;8.50;;
72273;SDS011;60208;48.692;8.948;2023-06-10T04:17:25;9.93;;;8.93;;
72273;SDS011;60208;48.692;8.948;2023-06-10T04:19:51;11.15;;;9.13;;
72273;SDS011;60208;48.692;8.948;2023-06-10T04:22:17;10.02;;;9.02;;
72273;SDS011;60208;48.692;8.948;2023-06-10T04:24:43;10.35;;;9.25;;
72273;SDS011;60208;48.692;8.948;2023-06-10T04:27:11;10.48;;;9.20;;
72273;SDS011;60208;48.692;8.948;2023-06-10T04:29:37;9.63;;;8.73;;
72273;SDS011;60208;48.692;8.948;2023-06-10T04:32:02;10.20;;;9.13;;
72273;SDS011;60208;48.692;8.948;2023-06-10T04:34:30;11.60;;;9.25;;
72273;SDS011;60208;48.692;8.948;2023-06-10T04:36:55;10.25;;;9.07;;
72273;SDS011;60208;48.692;8.948;2023-06-10T04:39:23;9.98;;;8.80;;
72273;SDS011;60208;48.692;8.948;2023-06-10T04:41:49;10.90;;;8.50;;
72273;SDS011;60208;48.692;8.948;2023-06-10T04:44:14;9.23;;;8.32;;
72273;SDS011;60208;48.692;8.948;2023-06-10T04:46:40;9.70;;;8.55;;
72273;SDS011;60208;48.692;8.948;2023-06-10T04:49:05;9.68;;;8.68;;
72273;SDS011;60208;48.692;8.948;2023-06-10T04:51:31;9.77;;;8.25;;
72273;SDS011;60208;48.692;8.948;2023-06-10T04:53:59;8.73;;;7.82;;
72273;SDS011;60208;48.692;8.948;2023-06-10T04:56:29;8.95;;;8.05;;
72273;SDS011;60208;48.692;8.948;2023-06-10T04:58:56;9.52;;;8.18;;
72273;SDS011;60208;48.692;8.948;2023-06-10T05:01:23;9.57;;;8.65;;
72273;SDS011;60208;48.692;8.948;2023-06-10T05:03:49;9.40;;;8.40;;
72273;SDS011;60208;48.692;8.948;2023-06-10T05:06:14;11.10;;;8.00;;
72273;SDS011;60208;48.692;8.948;2023-06-10T05:08:40;11.75;;;8.10;;
72273;SDS011;60208;48.692;8.948;2023-06-10T05:11:05;10.65;;;8.30;;
72273;SDS011;60208;48.692;8.948;2023-06-10T05:13:31;10.70;;;8.38;;
72273;SDS011;60208;48.692;8.948;2023-06-10T05:15:57;8.75;;;7.90;;
72273;SDS011;60208;48.692;8.948;2023-06-10T05:18:22;10.35;;;8.20;;
72273;SDS011;60208;48.692;8.948;2023-06-10T05:20:50;9.35;;;7.78;;
72273;SDS011;60208;48.692;8.948;2023-06-10T05:23:16;9.18;;;8.27;;
72273;SDS011;60208;48.692;8.948;2023-06-10T05:25:41;9.57;;;8.57;;
72273;SDS011;60208;48.692;8.948;2023-06-10T05:28:07;9.48;;;8.50;;
72273;SDS011;60208;48.692;8.948;2023-06-10T05:30:35;10.07;;;8.00;;
72273;SDS011;60208;48.692;8.948;2023-06-10T05:35:59;11.57;;;7.85;;
72273;SDS011;60208;48.692;8.948;2023-06-10T05:38:24;8.40;;;7.60;;
72273;SDS011;60208;48.692;8.948;2023-06-10T05:40:52;8.90;;;7.80;;
72273;SDS011;60208;48.692;8.948;2023-06-10T05:43:21;9.30;;;7.30;;
72273;SDS011;60208;48.692;8.948;2023-06-10T05:45:47;8.43;;;7.50;;
72273;SDS011;60208;48.692;8.948;2023-06-10T05:48:12;8.48;;;7.65;;
72273;SDS011;60208;48.692;8.948;2023-06-10T05:50:46;8.63;;;7.50;;
72273;SDS011;60208;48.692;8.948;2023-06-10T05:53:14;7.82;;;7.03;;
72273;SDS011;60208;48.692;8.948;2023-06-10T05:55:43;8.55;;;7.00;;
72273;SDS011;60208;48.692;8.948;2023-06-10T05:58:09;7.60;;;6.85;;
72273;SDS011;60208;48.692;8.948;2023-06-10T06:00:37;7.22;;;6.53;;
72273;SDS011;60208;48.692;8.948;2023-06-10T06:03:06;7.88;;;7.07;;
72273;SDS011;60208;48.692;8.948;2023-06-10T06:05:42;7.70;;;6.60;;
72273;SDS011;60208;48.692;8.948;2023-06-10T06:08:07;8.00;;;7.20;;
72273;SDS011;60208;48.692;8.948;2023-06-10T06:10:44;8.23;;;7.22;;
72273;SDS011;60208;48.692;8.948;2023-06-10T06:13:10;9.30;;;6.95;;
72273;SDS011;60208;48.692;8.948;2023-06-10T06:15:53;7.55;;;6.78;;
72273;SDS011;60208;48.692;8.948;2023-06-10T06:18:34;7.70;;;7.00;;
72273;SDS011;60208;48.692;8.948;2023-06-10T06:21:01;7.25;;;6.53;;
72273;SDS011;60208;48.692;8.948;2023-06-10T06:23:30;9.35;;;6.55;;
72273;SDS011;60208;48.692;8.948;2023-06-10T06:25:58;7.28;;;6.57;;
72273;SDS011;60208;48.692;8.948;2023-06-10T06:28:26;8.77;;;6.50;;
72273;SDS011;60208;48.692;8.948;2023-06-10T06:31:00;9.40;;;6.10;;
72273;SDS011;60208;48.692;8.948;2023-06-10T06:33:25;9.98;;;6.85;;
72273;SDS011;60208;48.692;8.948;2023-06-10T06:35:56;7.53;;;6.72;;
72273;SDS011;60208;48.692;8.948;2023-06-10T06:38:30;7.10;;;6.43;;
72273;SDS011;60208;48.692;8.948;2023-06-10T06:40:59;7.03;;;6.32;;
72273;SDS011;60208;48.692;8.948;2023-06-10T06:43:30;8.25;;;6.68;;
72273;SDS011;60208;48.692;8.948;2023-06-10T06:46:12;7.72;;;6.15;;
72273;SDS011;60208;48.692;8.948;2023-06-10T06:48:37;6.68;;;6.05;;
72273;SDS011;60208;48.692;8.948;2023-06-10T06:51:12;6.78;;;6.07;;
72273;SDS011;60208;48.692;8.948;2023-06-10T06:53:40;6.82;;;6.00;;
72273;SDS011;60208;48.692;8.948;2023-06-10T06:56:11;7.75;;;5.90;;
72273;SDS011;60208;48.692;8.948;2023-06-10T06:58:38;7.65;;;5.63;;
72273;SDS011;60208;48.692;8.948;2023-06-10T07:01:16;6.68;;;6.07;;
72273;SDS011;60208;48.692;8.948;2023-06-10T07:04:08;6.13;;;5.53;;
72273;SDS011;60208;48.692;8.948;2023-06-10T07:06:43;7.43;;;5.45;;
72273;SDS011;60208;48.692;8.948;2023-06-10T07:09:36;7.80;;;5.72;;
72273;SDS011;60208;48.692;8.948;2023-06-10T07:12:19;5.57;;;5.07;;
72273;SDS011;60208;48.692;8.948;2023-06-10T07:14:47;6.00;;;5.50;;
72273;SDS011;60208;48.692;8.948;2023-06-10T07:17:15;5.72;;;5.22;;
72273;SDS011;60208;48.692;8.948;2023-06-10T07:19:44;5.97;;;5.38;;
72273;SDS011;60208;48.692;8.948;2023-06-10T07:22:13;7.07;;;5.70;;
72273;SDS011;60208;48.692;8.948;2023-06-10T07:24:42;5.47;;;4.97;;
72273;SDS011;60208;48.692;8.948;2023-06-10T07:27:10;5.35;;;4.85;;
72273;SDS011;60208;48.692;8.948;2023-06-10T07:29:46;5.55;;;5.05;;
72273;SDS011;60208;48.692;8.948;2023-06-10T07:32:22;5.80;;;5.20;;
72273;SDS011;60208;48.692;8.948;2023-06-10T07:34:48;5.28;;;4.78;;
72273;SDS011;60208;48.692;8.948;2023-06-10T07:37:25;6.93;;;4.50;;
72273;SDS011;60208;48.692;8.948;2023-06-10T07:39:50;5.53;;;4.80;;
72273;SDS011;60208;48.692;8.948;2023-06-10T07:42:18;4.90;;;4.40;;
72273;SDS011;60208;48.692;8.948;2023-06-10T07:44:45;4.20;;;3.80;;
72273;SDS011;60208;48.692;8.948;2023-06-10T07:47:20;4.40;;;3.70;;
72273;SDS011;60208;48.692;8.948;2023-06-10T07:49:55;4.93;;;4.43;;
72273;SDS011;60208;48.692;8.948;2023-06-10T07:52:28;4.65;;;4.25;;
72273;SDS011;60208;48.692;8.948;2023-06-10T07:54:57;4.97;;;4.47;;
72273;SDS011;60208;48.692;8.948;2023-06-10T07:57:24;5.20;;;4.70;;
72273;SDS011;60208;48.692;8.948;2023-06-10T07:59:58;4.93;;;4.22;;
72273;SDS011;60208;48.692;8.948;2023-06-10T08:02:27;5.72;;;4.15;;
72273;SDS011;60208;48.692;8.948;2023-06-10T08:04:55;4.82;;;4.43;;
72273;SDS011;60208;48.692;8.948;2023-06-10T08:07:21;4.53;;;4.13;;
72273;SDS011;60208;48.692;8.948;2023-06-10T08:09:58;4.47;;;4.07;;
72273;SDS011;60208;48.692;8.948;2023-06-10T08:12:23;5.65;;;3.88;;
72273;SDS011;60208;48.692;8.948;2023-06-10T08:14:50;4.85;;;4.45;;
72273;SDS011;60208;48.692;8.948;2023-06-10T08:17:21;5.00;;;4.50;;
72273;SDS011;60208;48.692;8.948;2023-06-10T08:19:51;4.95;;;4.50;;
72273;SDS011;60208;48.692;8.948;2023-06-10T08:22:20;4.97;;;4.47;;
72273;SDS011;60208;48.692;8.948;2023-06-10T08:24:45;4.60;;;4.20;;
72273;SDS011;60208;48.692;8.948;2023-06-10T08:27:21;4.80;;;4.28;;
72273;SDS011;60208;48.692;8.948;2023-06-10T08:29:49;5.13;;;4.63;;
72273;SDS011;60208;48.692;8.948;2023-06-10T08:32:29;4.40;;;4.00;;
72273;SDS011;60208;48.692;8.948;2023-06-10T08:34:57;4.88;;;4.45;;
72273;SDS011;60208;48.692;8.948;2023-06-10T08:37:23;5.70;;;4.20;;
72273;SDS011;60208;48.692;8.948;2023-06-10T08:40:00;4.47;;;4.07;;
72273;SDS011;60208;48.692;8.948;2023-06-10T08:42:43;6.70;;;4.30;;
72273;SDS011;60208;48.692;8.948;2023-06-10T08:45:16;5.45;;;4.28;;
72273;SDS011;60208;48.692;8.948;2023-06-10T08:47:50;4.22;;;3.85;;
72273;SDS011;60208;48.692;8.948;2023-06-10T08:50:26;4.53;;;4.13;;
72273;SDS011;60208;48.692;8.948;2023-06-10T08:53:04;4.40;;;4.10;;
72273;SDS011;60208;48.692;8.948;2023-06-10T08:55:33;4.32;;;3.92;;
72273;SDS011;60208;48.692;8.948;2023-06-10T08:58:03;4.47;;;3.88;;
72273;SDS011;60208;48.692;8.948;2023-06-10T09:00:33;4.50;;;4.10;;
72273;SDS011;60208;48.692;8.948;2023-06-10T09:02:59;4.93;;;4.53;;
72273;SDS011;60208;48.692;8.948;2023-06-10T09:05:34;6.05;;;4.10;;
72273;SDS011;60208;48.692;8.948;2023-06-10T09:08:05;4.30;;;3.90;;
72273;SDS011;60208;48.692;8.948;2023-06-10T09:10:58;3.92;;;3.63;;
72273;SDS011;60208;48.692;8.948;2023-06-10T09:13:39;4.43;;;3.90;;
72273;SDS011;60208;48.692;8.948;2023-06-10T09:16:04;4.57;;;4.05;;
72273;SDS011;60208;48.692;8.948;2023-06-10T09:18:35;6.38;;;3.83;;
72273;SDS011;60208;48.692;8.948;2023-06-10T09:21:01;4.40;;;4.00;;
72273;SDS011;60208;48.692;8.948;2023-06-10T09:23:36;4.75;;;4.10;;
72273;SDS011;60208;48.692;8.948;2023-06-10T09:26:09;4.68;;;4.05;;
72273;SDS011;60208;48.692;8.948;2023-06-10T09:28:44;4.57;;;4.18;;
72273;SDS011;60208;48.692;8.948;2023-06-10T09:31:16;4.50;;;3.83;;
72273;SDS011;60208;48.692;8.948;2023-06-10T09:33:44;4.22;;;3.83;;
72273;SDS011;60208;48.692;8.948;2023-06-10T09:36:09;4.20;;;3.65;;
72273;SDS011;60208;48.692;8.948;2023-06-10T09:38:37;3.70;;;3.38;;
72273;SDS011;60208;48.692;8.948;2023-06-10T09:41:05;3.80;;;3.50;;
72273;SDS011;60208;48.692;8.948;2023-06-10T09:43:39;4.75;;;3.70;;
72273;SDS011;60208;48.692;8.948;2023-06-10T09:46:05;3.95;;;3.65;;
72273;SDS011;60208;48.692;8.948;2023-06-10T09:48:40;4.28;;;3.88;;
72273;SDS011;60208;48.692;8.948;2023-06-10T09:51:11;4.65;;;4.07;;
72273;SDS011;60208;48.692;8.948;2023-06-10T09:53:51;4.15;;;3.60;;
72273;SDS011;60208;48.692;8.948;2023-06-10T09:56:19;3.85;;;3.55;;
72273;SDS011;60208;48.692;8.948;2023-06-10T09:58:49;3.65;;;3.35;;
72273;SDS011;60208;48.692;8.948;2023-06-10T10:01:21;5.93;;;4.22;;
72273;SDS011;60208;48.692;8.948;2023-06-10T10:03:50;4.40;;;4.00;;
72273;SDS011;60208;48.692;8.948;2023-06-10T10:06:16;7.05;;;3.80;;
72273;SDS011;60208;48.692;8.948;2023-06-10T10:08:42;3.88;;;3.58;;
72273;SDS011;60208;48.692;8.948;2023-06-10T10:11:08;4.45;;;3.95;;
72273;SDS011;60208;48.692;8.948;2023-06-10T10:13:35;4.20;;;3.55;;
72273;SDS011;60208;48.692;8.948;2023-06-10T10:16:02;3.50;;;3.30;;
72273;SDS011;60208;48.692;8.948;2023-06-10T10:18:31;3.90;;;3.60;;
72273;SDS011;60208;48.692;8.948;2023-06-10T10:21:00;3.58;;;3.30;;
72273;SDS011;60208;48.692;8.948;2023-06-10T10:23:29;3.67;;;3.33;;
72273;SDS011;60208;48.692;8.948;2023-06-10T10:26:03;3.72;;;3.42;;
72273;SDS011;60208;48.692;8.948;2023-06-10T10:28:37;3.90;;;3.30;;
72273;SDS011;60208;48.692;8.948;2023-06-10T10:31:08;3.80;;;3.20;;
72273;SDS011;60208;48.692;8.948;2023-06-10T10:33:42;3.60;;;3.25;;
72273;SDS011;60208;48.692;8.948;2023-06-10T10:36:17;3.40;;;3.10;;
72273;SDS011;60208;48.692;8.948;2023-06-10T10:38:51;5.60;;;3.38;;
72273;SDS011;60208;48.692;8.948;2023-06-10T10:41:17;3.83;;;3.53;;
72273;SDS011;60208;48.692;8.948;2023-06-10T10:43:43;5.38;;;3.58;;
72273;SDS011;60208;48.692;8.948;2023-06-10T10:46:18;3.85;;;3.45;;
72273;SDS011;60208;48.692;8.948;2023-06-10T10:48:43;3.35;;;3.05;;
72273;SDS011;60208;48.692;8.948;2023-06-10T10:51:10;4.18;;;2.80;;
72273;SDS011;60208;48.692;8.948;2023-06-10T10:53:47;3.30;;;3.00;;
72273;SDS011;60208;48.692;8.948;2023-06-10T10:57:13;3.30;;;3.00;;
72273;SDS011;60208;48.692;8.948;2023-06-10T11:02:17;3.35;;;3.15;;
72273;SDS011;60208;48.692;8.948;2023-06-10T11:04:59;3.30;;;3.00;;
72273;SDS011;60208;48.692;8.948;2023-06-10T11:10:33;3.00;;;2.80;;
72273;SDS011;60208;48.692;8.948;2023-06-10T11:16:09;4.53;;;2.97;;
72273;SDS011;60208;48.692;8.948;2023-06-10T11:18:47;2.70;;;2.50;;
72273;SDS011;60208;48.692;8.948;2023-06-10T11:21:29;3.83;;;3.22;;
72273;SDS011;60208;48.692;8.948;2023-06-10T11:23:57;3.80;;;2.80;;
72273;SDS011;60208;48.692;8.948;2023-06-10T11:26:43;3.17;;;2.97;;
72273;SDS011;60208;48.692;8.948;2023-06-10T11:29:21;3.65;;;2.60;;
72273;SDS011;60208;48.692;8.948;2023-06-10T11:31:50;3.25;;;3.03;;
72273;SDS011;60208;48.692;8.948;2023-06-10T11:34:38;2.70;;;2.50;;
72273;SDS011;60208;48.692;8.948;2023-06-10T11:37:13;2.95;;;2.75;;
72273;SDS011;60208;48.692;8.948;2023-06-10T11:39:57;3.10;;;2.80;;
72273;SDS011;60208;48.692;8.948;2023-06-10T11:42:38;4.97;;;2.70;;
72273;SDS011;60208;48.692;8.948;2023-06-10T11:45:09;3.03;;;2.55;;
72273;SDS011;60208;48.692;8.948;2023-06-10T11:47:37;3.60;;;3.30;;
72273;SDS011;60208;48.692;8.948;2023-06-10T11:50:08;4.00;;;2.92;;
72273;SDS011;60208;48.692;8.948;2023-06-10T11:52:48;3.25;;;2.80;;
72273;SDS011;60208;48.692;8.948;2023-06-10T11:55:45;3.25;;;2.75;;
72273;SDS011;60208;48.692;8.948;2023-06-10T11:58:23;2.65;;;2.45;;
72273;SDS011;60208;48.692;8.948;2023-06-10T12:00:49;2.70;;;2.50;;
72273;SDS011;60208;48.692;8.948;2023-06-10T12:03:18;2.50;;;2.30;;
72273;SDS011;60208;48.692;8.948;2023-06-10T12:05:57;4.13;;;3.03;;
72273;SDS011;60208;48.692;8.948;2023-06-10T12:08:25;3.63;;;3.17;;
72273;SDS011;60208;48.692;8.948;2023-06-10T12:13:49;3.05;;;2.30;;
72273;SDS011;60208;48.692;8.948;2023-06-10T12:16:18;2.63;;;2.42;;
72273;SDS011;60208;48.692;8.948;2023-06-10T12:18:46;2.67;;;2.40;;
72273;SDS011;60208;48.692;8.948;2023-06-10T12:21:23;6.20;;;2.25;;
72273;SDS011;60208;48.692;8.948;2023-06-10T12:26:36;3.35;;;2.35;;
72273;SDS011;60208;48.692;8.948;2023-06-10T12:29:27;2.40;;;2.20;;
72273;SDS011;60208;48.692;8.948;2023-06-10T12:31:54;3.38;;;2.83;;
72273;SDS011;60208;48.692;8.948;2023-06-10T12:37:07;2.80;;;2.60;;
72273;SDS011;60208;48.692;8.948;2023-06-10T12:39:50;5.88;;;2.65;;
72273;SDS011;60208;48.692;8.948;2023-06-10T12:42:27;3.80;;;2.38;;
72273;SDS011;60208;48.692;8.948;2023-06-10T12:44:56;2.58;;;2.38;;
72273;SDS011;60208;48.692;8.948;2023-06-10T12:47:37;2.30;;;2.10;;
72273;SDS011;60208;48.692;8.948;2023-06-10T12:50:14;3.13;;;2.25;;
72273;SDS011;60208;48.692;8.948;2023-06-10T12:53:00;4.45;;;2.50;;
72273;SDS011;60208;48.692;8.948;2023-06-10T13:01:12;2.30;;;2.10;;
72273;SDS011;60208;48.692;8.948;2023-06-10T13:03:45;2.13;;;1.93;;
72273;SDS011;60208;48.692;8.948;2023-06-10T13:06:28;2.50;;;2.30;;
72273;SDS011;60208;48.692;8.948;2023-06-10T13:09:07;2.70;;;2.30;;
72273;SDS011;60208;48.692;8.948;2023-06-10T13:11:36;2.63;;;2.42;;
72273;SDS011;60208;48.692;8.948;2023-06-10T13:16:32;2.72;;;2.50;;
72273;SDS011;60208;48.692;8.948;2023-06-10T13:18:58;3.08;;;2.70;;
72273;SDS011;60208;48.692;8.948;2023-06-10T13:21:32;3.75;;;3.08;;
72273;SDS011;60208;48.692;8.948;2023-06-10T13:23:58;2.97;;;2.78;;
72273;SDS011;60208;48.692;8.948;2023-06-10T13:26:26;3.40;;;3.00;;
72273;SDS011;60208;48.692;8.948;2023-06-10T13:29:03;3.10;;;2.90;;
72273;SDS011;60208;48.692;8.948;2023-06-10T13:34:27;3.13;;;2.90;;
72273;SDS011;60208;48.692;8.948;2023-06-10T13:36:55;2.60;;;2.30;;
72273;SDS011;60208;48.692;8.948;2023-06-10T13:39:33;2.80;;;2.60;;
72273;SDS011;60208;48.692;8.948;2023-06-10T13:45:02;3.90;;;2.80;;
72273;SDS011;60208;48.692;8.948;2023-06-10T13:47:33;3.30;;;2.60;;
72273;SDS011;60208;48.692;8.948;2023-06-10T13:50:07;3.08;;;2.55;;
72273;SDS011;60208;48.692;8.948;2023-06-10T13:52:33;3.60;;;2.60;;
72273;SDS011;60208;48.692;8.948;2023-06-10T13:57:37;2.90;;;2.60;;
72273;SDS011;60208;48.692;8.948;2023-06-10T14:00:04;2.72;;;2.42;;
72273;SDS011;60208;48.692;8.948;2023-06-10T14:02:30;2.92;;;2.40;;
72273;SDS011;60208;48.692;8.948;2023-06-10T14:04:55;3.90;;;2.53;;
72273;SDS011;60208;48.692;8.948;2023-06-10T14:07:21;3.35;;;2.17;;
72273;SDS011;60208;48.692;8.948;2023-06-10T14:09:46;2.28;;;2.05;;
72273;SDS011;60208;48.692;8.948;2023-06-10T14:12:12;2.40;;;2.20;;
72273;SDS011;60208;48.692;8.948;2023-06-10T14:14:37;2.30;;;2.10;;
72273;SDS011;60208;48.692;8.948;2023-06-10T14:17:03;4.05;;;2.30;;
72273;SDS011;60208;48.692;8.948;2023-06-10T14:19:32;2.10;;;1.90;;
72273;SDS011;60208;48.692;8.948;2023-06-10T14:21:58;2.58;;;1.88;;
72273;SDS011;60208;48.692;8.948;2023-06-10T14:24:23;2.20;;;2.00;;
72273;SDS011;60208;48.692;8.948;2023-06-10T14:26:48;1.80;;;1.70;;
72273;SDS011;60208;48.692;8.948;2023-06-10T14:29:14;5.32;;;2.38;;
72273;SDS011;60208;48.692;8.948;2023-06-10T14:31:40;3.72;;;2.40;;
72273;SDS011;60208;48.692;8.948;2023-06-10T14:34:06;4.22;;;2.78;;
72273;SDS011;60208;48.692;8.948;2023-06-10T14:36:33;2.72;;;2.53;;
72273;SDS011;60208;48.692;8.948;2023-06-10T14:38:59;3.33;;;2.53;;
72273;SDS011;60208;48.692;8.948;2023-06-10T14:41:24;3.00;;;2.60;;
72273;SDS011;60208;48.692;8.948;2023-06-10T14:43:51;3.33;;;2.67;;
72273;SDS011;60208;48.692;8.948;2023-06-10T14:46:19;2.00;;;1.90;;
72273;SDS011;60208;48.692;8.948;2023-06-10T14:48:47;2.42;;;2.20;;
72273;SDS011;60208;48.692;8.948;2023-06-10T14:51:12;2.70;;;2.50;;
72273;SDS011;60208;48.692;8.948;2023-06-10T14:53:40;2.53;;;2.33;;
72273;SDS011;60208;48.692;8.948;2023-06-10T14:56:05;2.55;;;2.35;;
72273;SDS011;60208;48.692;8.948;2023-06-10T14:58:31;3.72;;;2.55;;
72273;SDS011;60208;48.692;8.948;2023-06-10T15:00:56;3.88;;;2.45;;
72273;SDS011;60208;48.692;8.948;2023-06-10T15:03:22;2.63;;;2.42;;
72273;SDS011;60208;48.692;8.948;2023-06-10T15:05:47;2.63;;;2.30;;
72273;SDS011;60208;48.692;8.948;2023-06-10T15:08:13;2.60;;;2.40;;
72273;SDS011;60208;48.692;8.948;2023-06-10T15:10:38;2.28;;;2.17;;
72273;SDS011;60208;48.692;8.948;2023-06-10T15:13:04;2.42;;;2.20;;
72273;SDS011;60208;48.692;8.948;2023-06-10T15:15:30;2.40;;;2.20;;
72273;SDS011;60208;48.692;8.948;2023-06-10T15:17:55;2.45;;;2.17;;
72273;SDS011;60208;48.692;8.948;2023-06-10T15:20:21;4.28;;;2.45;;
72273;SDS011;60208;48.692;8.948;2023-06-10T15:22:46;2.42;;;2.22;;
72273;SDS011;60208;48.692;8.948;2023-06-10T15:25:12;2.40;;;2.17;;
72273;SDS011;60208;48.692;8.948;2023-06-10T15:27:37;4.32;;;2.50;;
72273;SDS011;60208;48.692;8.948;2023-06-10T15:30:03;3.60;;;2.53;;
72273;SDS011;60208;48.692;8.948;2023-06-10T15:32:30;2.58;;;2.15;;
72273;SDS011;60208;48.692;8.948;2023-06-10T15:34:56;2.70;;;2.50;;
72273;SDS011;60208;48.692;8.948;2023-06-10T15:37:21;2.42;;;2.30;;
72273;SDS011;60208;48.692;8.948;2023-06-10T15:39:47;2.90;;;2.70;;
72273;SDS011;60208;48.692;8.948;2023-06-10T15:42:16;4.03;;;2.60;;